Time;durP1;ratioP1;P1;durP2;ratioP2;P2;SDS_P1;SDS_P2;PMS_P1;PMS_P2;Temp;Humidity;BMP_temperature;BMP_pressure;BME280_temperature;BME280_humidity;BME280_pressure;Samples;Min_cycle;Max_cycle;Signal;HPM_P1;HPM_P2
2022/07/22 00:00:40;;;;;;;4.63;2.50;;;;;;;;;;5025048;28;20037;-76
2022/07/22 00:03:06;;;;;;;4.88;2.50;;;;;;;;;;5024341;28;20056;-75
2022/07/22 00:05:33;;;;;;;4.97;2.75;;;;;;;;;;5028341;28;20065;-76
2022/07/22 00:07:59;;;;;;;8.43;3.05;;;;;;;;;;5024406;28;20408;-76
2022/07/22 00:10:25;;;;;;;4.18;2.42;;;;;;;;;;5028853;28;20508;-76
2022/07/22 00:12:51;;;;;;;4.38;2.60;;;;;;;;;;5026578;28;20021;-75
2022/07/22 00:15:17;;;;;;;3.58;2.72;;;;;;;;;;5031771;28;20021;-75
2022/07/22 00:17:43;;;;;;;4.95;3.00;;;;;;;;;;5031135;28;20049;-76
2022/07/22 00:20:10;;;;;;;4.82;2.58;;;;;;;;;;5031324;28;20025;-76
2022/07/22 00:22:36;;;;;;;5.15;2.60;;;;;;;;;;5031676;28;20021;-76
2022/07/22 00:25:02;;;;;;;4.78;2.70;;;;;;;;;;5030471;28;20075;-74
2022/07/22 00:27:28;;;;;;;4.05;2.47;;;;;;;;;;5031960;28;20132;-76
2022/07/22 00:29:54;;;;;;;6.10;2.70;;;;;;;;;;5032165;28;20422;-74
2022/07/22 00:32:20;;;;;;;5.57;2.67;;;;;;;;;;5033143;28;20060;-75
2022/07/22 00:34:46;;;;;;;4.35;2.90;;;;;;;;;;5033426;28;20021;-76
2022/07/22 00:37:12;;;;;;;6.90;2.55;;;;;;;;;;5033298;28;20449;-77
2022/07/22 00:39:40;;;;;;;6.00;3.65;;;;;;;;;;5029963;28;20033;-76
2022/07/22 00:42:06;;;;;;;3.75;2.38;;;;;;;;;;5030638;28;20027;-76
2022/07/22 00:44:32;;;;;;;3.20;2.70;;;;;;;;;;5030652;28;20046;-76
2022/07/22 00:46:59;;;;;;;6.70;2.78;;;;;;;;;;5028815;28;20030;-77
2022/07/22 00:49:25;;;;;;;5.57;4.05;;;;;;;;;;5035337;28;20487;-76
2022/07/22 00:51:51;;;;;;;4.80;3.33;;;;;;;;;;5031728;28;20029;-77
2022/07/22 00:54:17;;;;;;;10.93;3.20;;;;;;;;;;5028170;28;20120;-76
2022/07/22 00:56:44;;;;;;;5.35;2.80;;;;;;;;;;5029943;28;20538;-76
2022/07/22 00:59:11;;;;;;;4.35;3.30;;;;;;;;;;5029832;28;20028;-76
2022/07/22 01:01:37;;;;;;;4.88;3.38;;;;;;;;;;5032038;28;20083;-76
2022/07/22 01:04:03;;;;;;;5.22;2.78;;;;;;;;;;5029544;28;20021;-76
2022/07/22 01:06:30;;;;;;;6.68;2.60;;;;;;;;;;5027454;28;20034;-76
2022/07/22 01:08:56;;;;;;;5.25;3.00;;;;;;;;;;5029048;28;20029;-77
2022/07/22 01:11:23;;;;;;;4.32;2.60;;;;;;;;;;5013981;28;20025;-76
2022/07/22 01:13:49;;;;;;;6.45;2.97;;;;;;;;;;5021946;28;20584;-76
2022/07/22 01:16:17;;;;;;;3.72;3.10;;;;;;;;;;5030110;28;20022;-76
2022/07/22 01:18:43;;;;;;;5.75;2.95;;;;;;;;;;5032653;28;20208;-76
2022/07/22 01:21:10;;;;;;;5.20;2.80;;;;;;;;;;5030058;28;20411;-77
2022/07/22 01:23:36;;;;;;;6.55;2.83;;;;;;;;;;5030633;28;20042;-77
2022/07/22 01:26:03;;;;;;;6.50;2.72;;;;;;;;;;5028643;28;20029;-77
2022/07/22 01:28:29;;;;;;;3.63;2.47;;;;;;;;;;5031275;28;20107;-76
2022/07/22 01:30:56;;;;;;;5.22;2.75;;;;;;;;;;5030149;28;20069;-77
2022/07/22 01:33:23;;;;;;;4.55;2.50;;;;;;;;;;5027450;28;20026;-76
2022/07/22 01:35:49;;;;;;;3.95;2.55;;;;;;;;;;5029547;28;20033;-78
2022/07/22 01:38:15;;;;;;;7.22;3.20;;;;;;;;;;5031681;28;20361;-76
2022/07/22 01:40:42;;;;;;;4.20;2.70;;;;;;;;;;5030171;28;20052;-76
2022/07/22 01:43:09;;;;;;;5.15;2.88;;;;;;;;;;5027476;28;20033;-76
2022/07/22 01:45:35;;;;;;;5.80;3.47;;;;;;;;;;5027228;28;20391;-76
2022/07/22 01:48:01;;;;;;;5.07;2.58;;;;;;;;;;5028240;28;20064;-76
2022/07/22 01:50:27;;;;;;;6.30;2.50;;;;;;;;;;5031376;28;20083;-76
2022/07/22 01:52:53;;;;;;;5.45;2.35;;;;;;;;;;5031323;28;20032;-77
2022/07/22 01:55:20;;;;;;;6.45;2.78;;;;;;;;;;5030832;28;20013;-76
2022/07/22 01:57:46;;;;;;;4.53;2.53;;;;;;;;;;5029073;28;20017;-77
2022/07/22 02:00:13;;;;;;;2.75;2.30;;;;;;;;;;5027105;28;20489;-76
2022/07/22 02:02:39;;;;;;;4.45;3.17;;;;;;;;;;5029831;28;20021;-76
2022/07/22 02:05:06;;;;;;;4.70;2.50;;;;;;;;;;5028164;28;20017;-76
2022/07/22 02:07:33;;;;;;;5.70;2.60;;;;;;;;;;5024338;28;20037;-77
2022/07/22 02:09:59;;;;;;;5.47;2.67;;;;;;;;;;5029456;28;20045;-76
2022/07/22 02:12:25;;;;;;;6.63;2.97;;;;;;;;;;5028181;28;20480;-76
2022/07/22 02:14:51;;;;;;;6.57;2.50;;;;;;;;;;5028592;28;20029;-76
2022/07/22 02:17:17;;;;;;;3.35;2.47;;;;;;;;;;5030508;28;20032;-76
2022/07/22 02:19:43;;;;;;;5.05;2.70;;;;;;;;;;5028289;28;20499;-76
2022/07/22 02:22:09;;;;;;;5.35;2.50;;;;;;;;;;5028069;28;20032;-76
2022/07/22 02:24:36;;;;;;;3.72;2.40;;;;;;;;;;5027749;28;20472;-76
2022/07/22 02:27:03;;;;;;;3.90;2.63;;;;;;;;;;5027297;28;20422;-76
2022/07/22 02:29:29;;;;;;;3.53;2.30;;;;;;;;;;5017038;28;20017;-76
2022/07/22 02:31:55;;;;;;;3.75;2.40;;;;;;;;;;5028146;28;20041;-76
2022/07/22 02:34:21;;;;;;;3.65;2.20;;;;;;;;;;5027775;28;20395;-76
2022/07/22 02:36:48;;;;;;;3.90;2.30;;;;;;;;;;5024287;28;20506;-77
2022/07/22 02:39:14;;;;;;;2.90;2.22;;;;;;;;;;5026415;28;20029;-77
2022/07/22 02:41:40;;;;;;;4.38;2.65;;;;;;;;;;5020862;28;20024;-75
2022/07/22 02:44:06;;;;;;;5.93;2.90;;;;;;;;;;5025816;28;20487;-76
2022/07/22 02:46:32;;;;;;;3.13;2.20;;;;;;;;;;5024951;28;20064;-76
2022/07/22 02:48:58;;;;;;;3.33;2.17;;;;;;;;;;5022980;28;20216;-76
2022/07/22 02:51:24;;;;;;;4.85;2.53;;;;;;;;;;5027202;28;20083;-76
2022/07/22 02:53:50;;;;;;;3.78;2.47;;;;;;;;;;5025705;28;20506;-76
2022/07/22 02:56:17;;;;;;;4.90;2.75;;;;;;;;;;5024781;28;20021;-76
2022/07/22 02:58:43;;;;;;;3.33;2.33;;;;;;;;;;5021347;28;20022;-76
2022/07/22 03:01:09;;;;;;;3.33;2.13;;;;;;;;;;5026175;28;20360;-77
2022/07/22 03:03:35;;;;;;;3.67;1.95;;;;;;;;;;5029895;28;20037;-77
2022/07/22 03:06:01;;;;;;;5.28;2.67;;;;;;;;;;5028151;28;20029;-76
2022/07/22 03:08:27;;;;;;;5.90;2.38;;;;;;;;;;5029390;28;20021;-76
2022/07/22 03:10:53;;;;;;;8.55;2.50;;;;;;;;;;5018602;28;20029;-76
2022/07/22 03:13:20;;;;;;;4.20;2.45;;;;;;;;;;5022489;28;20139;-76
2022/07/22 03:15:46;;;;;;;4.70;2.28;;;;;;;;;;5020742;28;20073;-76
2022/07/22 03:18:12;;;;;;;3.22;2.40;;;;;;;;;;5018365;28;20025;-77
2022/07/22 03:20:38;;;;;;;5.78;2.80;;;;;;;;;;5025198;28;20584;-76
2022/07/22 03:23:04;;;;;;;3.92;2.70;;;;;;;;;;5027774;28;20591;-75
2022/07/22 03:25:32;;;;;;;3.65;2.20;;;;;;;;;;5029495;28;20025;-77
2022/07/22 03:27:58;;;;;;;4.63;2.33;;;;;;;;;;5023154;28;20017;-76
2022/07/22 03:30:24;;;;;;;5.88;2.58;;;;;;;;;;5025966;28;20049;-77
2022/07/22 03:32:50;;;;;;;5.28;2.70;;;;;;;;;;5016726;28;20028;-76
2022/07/22 03:35:16;;;;;;;2.63;2.10;;;;;;;;;;5025587;28;20108;-76
2022/07/22 03:37:43;;;;;;;5.53;3.03;;;;;;;;;;5028473;28;20022;-76
2022/07/22 03:40:09;;;;;;;4.65;2.53;;;;;;;;;;5030536;28;20037;-76
2022/07/22 03:42:36;;;;;;;5.28;2.60;;;;;;;;;;5022208;28;20032;-75
2022/07/22 03:45:02;;;;;;;4.10;2.63;;;;;;;;;;5023043;28;20462;-75
2022/07/22 03:47:28;;;;;;;3.05;2.40;;;;;;;;;;5029801;28;20029;-75
2022/07/22 03:49:54;;;;;;;4.55;2.50;;;;;;;;;;5025935;28;20068;-75
2022/07/22 03:52:20;;;;;;;2.50;2.20;;;;;;;;;;5031321;28;20023;-75
2022/07/22 03:54:46;;;;;;;3.85;2.42;;;;;;;;;;5028439;28;20036;-75
2022/07/22 03:57:12;;;;;;;3.40;2.30;;;;;;;;;;5027363;28;20026;-76
2022/07/22 03:59:38;;;;;;;3.30;2.13;;;;;;;;;;5029418;28;20254;-76
2022/07/22 04:02:05;;;;;;;3.50;2.45;;;;;;;;;;5025434;28;20037;-75
2022/07/22 04:04:31;;;;;;;4.28;2.25;;;;;;;;;;5030111;28;20379;-76
2022/07/22 04:06:57;;;;;;;3.50;2.30;;;;;;;;;;5024265;28;20026;-76
2022/07/22 04:09:23;;;;;;;4.82;2.22;;;;;;;;;;5030162;28;20028;-76
2022/07/22 04:11:50;;;;;;;4.55;2.38;;;;;;;;;;5032299;28;20051;-75
2022/07/22 04:14:17;;;;;;;6.10;2.50;;;;;;;;;;5027709;28;20482;-76
2022/07/22 04:16:43;;;;;;;4.57;2.60;;;;;;;;;;5024816;28;20030;-75
2022/07/22 04:19:10;;;;;;;5.03;2.30;;;;;;;;;;5025311;28;20025;-75
2022/07/22 04:21:36;;;;;;;3.55;2.70;;;;;;;;;;5029643;28;20090;-76
2022/07/22 04:24:02;;;;;;;4.50;2.92;;;;;;;;;;5031520;28;20097;-77
2022/07/22 04:26:29;;;;;;;5.13;3.05;;;;;;;;;;5029908;28;20064;-76
2022/07/22 04:28:55;;;;;;;5.88;2.40;;;;;;;;;;5033794;28;20062;-76
2022/07/22 04:31:21;;;;;;;5.55;2.63;;;;;;;;;;5031773;28;20072;-76
2022/07/22 04:33:47;;;;;;;4.47;2.55;;;;;;;;;;5033613;28;20033;-76
2022/07/22 04:36:13;;;;;;;5.25;2.90;;;;;;;;;;5028132;28;20487;-76
2022/07/22 04:38:39;;;;;;;4.30;2.60;;;;;;;;;;5023607;28;20033;-76
2022/07/22 04:41:06;;;;;;;6.22;2.70;;;;;;;;;;5026245;28;20026;-76
2022/07/22 04:43:32;;;;;;;5.13;2.60;;;;;;;;;;5030269;28;20034;-76
2022/07/22 04:45:58;;;;;;;7.43;3.10;;;;;;;;;;5029103;28;20152;-75
2022/07/22 04:48:24;;;;;;;4.72;2.83;;;;;;;;;;5029887;28;20030;-76
2022/07/22 04:50:50;;;;;;;5.28;2.70;;;;;;;;;;5033624;28;20530;-76
2022/07/22 04:53:16;;;;;;;6.60;2.80;;;;;;;;;;5029752;28;20025;-75
2022/07/22 04:55:42;;;;;;;3.38;2.70;;;;;;;;;;5032140;28;20053;-76
2022/07/22 04:58:09;;;;;;;5.93;3.75;;;;;;;;;;5031413;28;20059;-76
2022/07/22 05:00:35;;;;;;;4.22;2.97;;;;;;;;;;5033390;28;20036;-75
2022/07/22 05:03:01;;;;;;;6.50;2.92;;;;;;;;;;5028995;28;20352;-75
2022/07/22 05:05:27;;;;;;;3.80;3.20;;;;;;;;;;5030871;28;20021;-75
2022/07/22 05:07:53;;;;;;;4.68;2.60;;;;;;;;;;5031724;28;20056;-75
2022/07/22 05:10:19;;;;;;;3.67;2.30;;;;;;;;;;5034002;28;20077;-75
2022/07/22 05:12:45;;;;;;;3.70;2.70;;;;;;;;;;5029134;28;20093;-75
2022/07/22 05:15:12;;;;;;;8.05;3.40;;;;;;;;;;5029297;28;20030;-75
2022/07/22 05:17:38;;;;;;;7.38;3.10;;;;;;;;;;5030980;28;20018;-75
2022/07/22 05:20:04;;;;;;;4.82;2.83;;;;;;;;;;5026591;28;20034;-77
2022/07/22 05:22:31;;;;;;;7.72;3.03;;;;;;;;;;5030552;28;20033;-76
2022/07/22 05:24:57;;;;;;;3.00;2.42;;;;;;;;;;5031978;28;20029;-76
2022/07/22 05:27:23;;;;;;;5.75;2.60;;;;;;;;;;5031660;28;20026;-77
2022/07/22 05:29:49;;;;;;;4.32;2.53;;;;;;;;;;5035278;28;20040;-77
2022/07/22 05:32:15;;;;;;;4.38;2.65;;;;;;;;;;5033824;28;20502;-77
2022/07/22 05:34:42;;;;;;;7.45;2.90;;;;;;;;;;5031956;28;20037;-77
2022/07/22 05:37:08;;;;;;;4.95;2.60;;;;;;;;;;5032589;28;20040;-76
2022/07/22 05:39:34;;;;;;;4.80;3.35;;;;;;;;;;5031846;28;20033;-77
2022/07/22 05:42:00;;;;;;;5.10;2.67;;;;;;;;;;5030188;28;20483;-76
2022/07/22 05:44:26;;;;;;;4.63;2.72;;;;;;;;;;5032971;28;20034;-76
2022/07/22 05:46:52;;;;;;;6.18;2.70;;;;;;;;;;5026398;28;20407;-77
2022/07/22 05:49:19;;;;;;;5.35;2.78;;;;;;;;;;5028586;28;20029;-77
2022/07/22 05:51:46;;;;;;;5.07;3.00;;;;;;;;;;5028551;28;20033;-76
2022/07/22 05:54:12;;;;;;;5.22;2.47;;;;;;;;;;5032568;28;20467;-77
2022/07/22 05:56:38;;;;;;;5.20;2.67;;;;;;;;;;5027061;28;20071;-76
2022/07/22 05:59:04;;;;;;;5.28;2.72;;;;;;;;;;5032244;28;20021;-76
2022/07/22 06:01:30;;;;;;;4.05;2.72;;;;;;;;;;5035065;28;20025;-77
2022/07/22 06:03:56;;;;;;;5.88;2.88;;;;;;;;;;5036455;28;20101;-76
2022/07/22 06:06:22;;;;;;;4.88;2.78;;;;;;;;;;5035461;28;20025;-76
2022/07/22 06:08:48;;;;;;;6.85;3.08;;;;;;;;;;5033219;28;20041;-76
2022/07/22 06:11:15;;;;;;;9.35;3.05;;;;;;;;;;5035421;28;20029;-76
2022/07/22 06:13:41;;;;;;;9.23;2.92;;;;;;;;;;5028877;28;20033;-76
2022/07/22 06:16:07;;;;;;;4.50;2.72;;;;;;;;;;5031749;28;20104;-78
2022/07/22 06:18:33;;;;;;;6.97;2.85;;;;;;;;;;5035360;28;20026;-75
2022/07/22 06:20:59;;;;;;;3.55;2.88;;;;;;;;;;5030410;28;20124;-76
2022/07/22 06:23:26;;;;;;;3.60;2.60;;;;;;;;;;5033124;28;20041;-76
2022/07/22 06:25:52;;;;;;;7.47;3.22;;;;;;;;;;5031358;28;20084;-76
2022/07/22 06:28:18;;;;;;;6.18;2.95;;;;;;;;;;5033483;28;20026;-76
2022/07/22 06:30:44;;;;;;;5.03;2.88;;;;;;;;;;5028403;28;20061;-76
2022/07/22 06:33:13;;;;;;;7.20;3.05;;;;;;;;;;5034257;28;20026;-76
2022/07/22 06:35:40;;;;;;;4.43;2.80;;;;;;;;;;5026262;28;20025;-76
2022/07/22 06:38:07;;;;;;;6.55;3.35;;;;;;;;;;5032710;28;20565;-77
2022/07/22 06:40:33;;;;;;;4.03;2.53;;;;;;;;;;5027323;28;20491;-76
2022/07/22 06:42:59;;;;;;;5.38;2.55;;;;;;;;;;5031725;28;20107;-76
2022/07/22 06:45:26;;;;;;;5.45;3.28;;;;;;;;;;5022650;28;20414;-76
2022/07/22 06:47:52;;;;;;;7.63;3.58;;;;;;;;;;5032919;28;20028;-76
2022/07/22 06:50:18;;;;;;;7.40;3.10;;;;;;;;;;5026903;28;20391;-76
2022/07/22 06:52:44;;;;;;;5.10;2.97;;;;;;;;;;5034216;28;20017;-77
2022/07/22 06:55:10;;;;;;;10.70;3.13;;;;;;;;;;5027568;28;20095;-76
2022/07/22 06:57:36;;;;;;;6.70;2.88;;;;;;;;;;5030483;28;20461;-76
2022/07/22 07:00:10;;;;;;;5.85;2.50;;;;;;;;;;5029120;28;20021;-76
2022/07/22 07:02:36;;;;;;;5.47;2.70;;;;;;;;;;5029794;28;20039;-77
2022/07/22 07:05:02;;;;;;;3.60;2.70;;;;;;;;;;5028666;28;20040;-77
2022/07/22 07:07:28;;;;;;;3.38;2.40;;;;;;;;;;5029664;28;20368;-77
2022/07/22 07:09:54;;;;;;;4.28;2.50;;;;;;;;;;5030542;28;20021;-77
2022/07/22 07:12:20;;;;;;;5.93;2.95;;;;;;;;;;5028040;28;20017;-77
2022/07/22 07:14:46;;;;;;;4.40;2.78;;;;;;;;;;5027567;28;20021;-76
2022/07/22 07:17:15;;;;;;;7.82;3.15;;;;;;;;;;5029066;28;20053;-77
2022/07/22 07:19:41;;;;;;;6.07;3.30;;;;;;;;;;5027662;28;20032;-77
2022/07/22 07:22:07;;;;;;;7.03;3.42;;;;;;;;;;5031614;28;20059;-77
2022/07/22 07:24:33;;;;;;;7.18;2.90;;;;;;;;;;5031935;28;20029;-76
2022/07/22 07:27:00;;;;;;;4.97;2.75;;;;;;;;;;5030113;28;20056;-76
2022/07/22 07:29:26;;;;;;;5.32;2.50;;;;;;;;;;5028479;28;20033;-77
2022/07/22 07:31:52;;;;;;;2.72;2.50;;;;;;;;;;5029915;28;20084;-77
2022/07/22 07:34:18;;;;;;;6.95;3.50;;;;;;;;;;5029110;28;20360;-77
2022/07/22 07:36:45;;;;;;;3.85;2.40;;;;;;;;;;5027566;28;20065;-77
2022/07/22 07:39:12;;;;;;;5.03;2.58;;;;;;;;;;5028965;28;20472;-76
2022/07/22 07:41:38;;;;;;;4.15;2.47;;;;;;;;;;5029765;28;20140;-77
2022/07/22 07:44:04;;;;;;;8.15;3.10;;;;;;;;;;5024295;28;20034;-77
2022/07/22 07:46:30;;;;;;;5.80;2.78;;;;;;;;;;5020801;28;20565;-78
2022/07/22 07:48:56;;;;;;;5.70;2.38;;;;;;;;;;5019972;28;20454;-76
2022/07/22 07:51:22;;;;;;;4.38;2.60;;;;;;;;;;5022084;28;20154;-77
2022/07/22 07:53:48;;;;;;;5.82;2.58;;;;;;;;;;5021958;28;20026;-76
2022/07/22 07:56:15;;;;;;;3.13;2.40;;;;;;;;;;5023969;28;20029;-78
2022/07/22 07:58:41;;;;;;;4.32;2.92;;;;;;;;;;5022836;28;20029;-77
2022/07/22 08:01:07;;;;;;;4.10;2.50;;;;;;;;;;5027034;28;20025;-77
2022/07/22 08:03:33;;;;;;;4.75;2.47;;;;;;;;;;5028613;28;20097;-77
2022/07/22 08:05:59;;;;;;;4.63;2.60;;;;;;;;;;5022404;28;20065;-78
2022/07/22 08:08:26;;;;;;;3.63;2.50;;;;;;;;;;5018653;28;20037;-78
2022/07/22 08:10:52;;;;;;;3.70;2.42;;;;;;;;;;5025229;28;20124;-77
2022/07/22 08:13:18;;;;;;;3.53;2.30;;;;;;;;;;5026150;28;20104;-76
2022/07/22 08:15:45;;;;;;;4.43;2.60;;;;;;;;;;5031573;28;20056;-76
2022/07/22 08:18:11;;;;;;;7.47;2.85;;;;;;;;;;5025615;28;20029;-76
2022/07/22 08:20:37;;;;;;;4.55;2.42;;;;;;;;;;5022228;28;20049;-76
2022/07/22 08:23:04;;;;;;;5.03;2.28;;;;;;;;;;5025063;28;20473;-77
2022/07/22 08:25:30;;;;;;;3.65;1.92;;;;;;;;;;5027797;28;20398;-77
2022/07/22 08:27:56;;;;;;;2.42;2.13;;;;;;;;;;5022300;28;20426;-76
2022/07/22 08:30:23;;;;;;;3.25;2.05;;;;;;;;;;5024366;28;20030;-76
2022/07/22 08:32:49;;;;;;;2.88;2.10;;;;;;;;;;5023127;28;20021;-76
2022/07/22 08:35:16;;;;;;;3.42;2.47;;;;;;;;;;5023306;28;20029;-77
2022/07/22 08:37:42;;;;;;;8.10;3.00;;;;;;;;;;5024213;28;20018;-76
2022/07/22 08:40:08;;;;;;;4.97;2.25;;;;;;;;;;5024693;28;20036;-75
2022/07/22 08:42:39;;;;;;;3.35;2.22;;;;;;;;;;5024246;28;20052;-76
2022/07/22 08:45:05;;;;;;;6.90;2.20;;;;;;;;;;5025457;28;20032;-76
2022/07/22 08:47:31;;;;;;;5.43;2.20;;;;;;;;;;5025551;28;20563;-75
2022/07/22 08:49:58;;;;;;;5.47;2.33;;;;;;;;;;5026794;28;20086;-75
2022/07/22 08:52:24;;;;;;;8.13;2.65;;;;;;;;;;5027852;28;20029;-77
2022/07/22 08:54:50;;;;;;;6.93;2.00;;;;;;;;;;5026849;28;20052;-75
2022/07/22 08:57:17;;;;;;;4.70;2.10;;;;;;;;;;5028751;28;20051;-77
2022/07/22 08:59:53;;;;;;;6.57;2.35;;;;;;;;;;5026156;28;20029;-76
2022/07/22 09:02:20;;;;;;;4.85;2.70;;;;;;;;;;5025303;28;20389;-76
2022/07/22 09:04:55;;;;;;;5.72;2.38;;;;;;;;;;5024633;28;20032;-77
2022/07/22 09:07:25;;;;;;;3.58;2.22;;;;;;;;;;5027525;28;20025;-76
2022/07/22 09:09:51;;;;;;;7.28;2.78;;;;;;;;;;5023666;28;20032;-75
2022/07/22 09:12:17;;;;;;;5.88;2.55;;;;;;;;;;5024672;28;20021;-76
2022/07/22 09:14:45;;;;;;;8.27;2.42;;;;;;;;;;5026008;28;20483;-77
2022/07/22 09:17:25;;;;;;;4.70;2.47;;;;;;;;;;5022110;28;20033;-76
2022/07/22 09:19:51;;;;;;;4.43;2.10;;;;;;;;;;5027280;28;20022;-77
2022/07/22 09:22:35;;;;;;;5.00;2.40;;;;;;;;;;5025462;28;20306;-77
2022/07/22 09:25:21;;;;;;;4.03;2.30;;;;;;;;;;5023715;28;20029;-77
2022/07/22 09:27:48;;;;;;;6.97;2.25;;;;;;;;;;5022381;28;20026;-77
2022/07/22 09:30:15;;;;;;;5.32;2.10;;;;;;;;;;5025262;28;20081;-77
2022/07/22 09:32:42;;;;;;;5.10;2.20;;;;;;;;;;5024122;28;20042;-76
2022/07/22 09:35:10;;;;;;;4.22;2.17;;;;;;;;;;5025337;28;20037;-75
2022/07/22 09:37:36;;;;;;;4.13;2.10;;;;;;;;;;5025306;28;20053;-77
2022/07/22 09:40:16;;;;;;;4.00;2.38;;;;;;;;;;5022789;28;20045;-77
2022/07/22 09:42:46;;;;;;;2.30;2.10;;;;;;;;;;5023377;28;20033;-78
2022/07/22 09:45:12;;;;;;;4.50;2.20;;;;;;;;;;5022316;28;20025;-77
2022/07/22 09:47:41;;;;;;;3.95;2.00;;;;;;;;;;5021640;28;20029;-76
2022/07/22 09:50:17;;;;;;;5.28;2.50;;;;;;;;;;5022930;28;20029;-76
2022/07/22 09:52:43;;;;;;;3.70;2.47;;;;;;;;;;5023682;28;20071;-76
2022/07/22 09:55:10;;;;;;;2.80;2.40;;;;;;;;;;5022776;28;20029;-76
2022/07/22 09:57:36;;;;;;;3.92;2.10;;;;;;;;;;5023955;28;20084;-76
2022/07/22 10:00:04;;;;;;;3.65;2.47;;;;;;;;;;5022800;28;20097;-80
2022/07/22 10:02:30;;;;;;;5.22;2.63;;;;;;;;;;5023234;28;20576;-77
2022/07/22 10:04:58;;;;;;;3.00;2.45;;;;;;;;;;5026722;28;20108;-79
2022/07/22 10:07:26;;;;;;;3.35;2.17;;;;;;;;;;5024251;28;20033;-80
2022/07/22 10:09:54;;;;;;;2.35;1.98;;;;;;;;;;5023070;28;20087;-76
2022/07/22 10:12:20;;;;;;;3.45;2.20;;;;;;;;;;5022841;28;20085;-78
2022/07/22 10:14:47;;;;;;;5.95;2.67;;;;;;;;;;5023296;28;20052;-77
2022/07/22 10:17:14;;;;;;;8.45;2.40;;;;;;;;;;5023309;28;20132;-77
2022/07/22 10:19:40;;;;;;;3.35;2.20;;;;;;;;;;5021373;28;20025;-76
2022/07/22 10:22:36;;;;;;;4.90;2.50;;;;;;;;;;5022900;28;20461;-77
2022/07/22 10:25:02;;;;;;;;;;;;;;;;;;5019269;28;20111;-78
2022/07/22 10:27:48;;;;;;;4.82;2.00;;;;;;;;;;5019218;28;19921;-78
2022/07/22 10:30:16;;;;;;;4.25;2.30;;;;;;;;;;5022611;28;20038;-78
2022/07/22 10:32:42;;;;;;;2.88;2.00;;;;;;;;;;5021871;28;20022;-76
2022/07/22 10:35:11;;;;;;;3.85;2.10;;;;;;;;;;5021873;28;20075;-79
2022/07/22 10:37:43;;;;;;;1.98;1.77;;;;;;;;;;5020628;28;20021;-76
2022/07/22 10:40:15;;;;;;;6.13;2.05;;;;;;;;;;5021855;28;20130;-78
2022/07/22 10:43:00;;;;;;;3.45;1.90;;;;;;;;;;5020974;28;20034;-75
2022/07/22 10:45:46;;;;;;;3.15;1.95;;;;;;;;;;5017631;28;20037;-76
2022/07/22 10:48:20;;;;;;;2.13;1.80;;;;;;;;;;5021974;28;20021;-80
2022/07/22 10:50:49;;;;;;;4.13;2.00;;;;;;;;;;5021881;28;20517;-76
2022/07/22 10:53:42;;;;;;;5.03;2.20;;;;;;;;;;5021703;28;20025;-77
2022/07/22 10:56:13;;;;;;;7.35;2.45;;;;;;;;;;5021481;28;20036;-75
2022/07/22 10:58:41;;;;;;;3.30;2.05;;;;;;;;;;5022281;28;20509;-77
2022/07/22 11:01:09;;;;;;;2.28;1.80;;;;;;;;;;5020012;28;20065;-77
2022/07/22 11:03:36;;;;;;;2.70;2.00;;;;;;;;;;5015616;28;20025;-76
2022/07/22 11:06:15;;;;;;;3.08;1.98;;;;;;;;;;5020916;28;20033;-76
2022/07/22 11:08:41;;;;;;;2.85;1.80;;;;;;;;;;5021187;28;20034;-76
2022/07/22 11:11:08;;;;;;;6.07;2.20;;;;;;;;;;5021685;28;20606;-77
2022/07/22 11:13:34;;;;;;;4.55;2.35;;;;;;;;;;5022367;28;20037;-76
2022/07/22 11:16:20;;;;;;;5.75;2.63;;;;;;;;;;5019849;28;20045;-77
2022/07/22 11:18:49;;;;;;;5.60;2.63;;;;;;;;;;5021752;28;20823;-76
2022/07/22 11:21:16;;;;;;;4.70;2.38;;;;;;;;;;5021051;28;20152;-76
2022/07/22 11:23:43;;;;;;;3.13;2.30;;;;;;;;;;5021973;28;20529;-76
2022/07/22 11:26:14;;;;;;;6.53;2.53;;;;;;;;;;5020439;28;20463;-76
2022/07/22 11:28:43;;;;;;;3.75;2.25;;;;;;;;;;5020955;28;20032;-76
2022/07/22 11:31:10;;;;;;;3.13;2.20;;;;;;;;;;5021159;28;20162;-76
2022/07/22 11:33:36;;;;;;;5.75;2.58;;;;;;;;;;5019955;28;20033;-77
2022/07/22 11:36:09;;;;;;;4.18;2.20;;;;;;;;;;5016812;28;20135;-76
2022/07/22 11:38:49;;;;;;;5.32;2.75;;;;;;;;;;5021619;28;20017;-76
2022/07/22 11:41:16;;;;;;;3.78;1.90;;;;;;;;;;5020924;28;20028;-76
2022/07/22 11:43:46;;;;;;;4.43;2.75;;;;;;;;;;5019698;28;20029;-76
2022/07/22 11:46:12;;;;;;;5.40;2.05;;;;;;;;;;5020434;28;20938;-76
2022/07/22 11:48:39;;;;;;;5.90;3.08;;;;;;;;;;5023873;28;20036;-76
2022/07/22 11:51:06;;;;;;;4.00;2.28;;;;;;;;;;5021113;28;20051;-74
2022/07/22 11:53:32;;;;;;;3.33;2.08;;;;;;;;;;5021763;28;20461;-74
2022/07/22 11:56:03;;;;;;;5.68;2.40;;;;;;;;;;5021663;28;20029;-75
2022/07/22 11:58:36;;;;;;;4.40;2.63;;;;;;;;;;5022014;28;20139;-76
2022/07/22 12:01:02;;;;;;;3.47;2.13;;;;;;;;;;5019636;28;20026;-74
2022/07/22 12:03:28;;;;;;;3.25;2.10;;;;;;;;;;5019688;28;20033;-75
2022/07/22 12:05:55;;;;;;;4.32;2.30;;;;;;;;;;5020993;28;20037;-77
2022/07/22 12:08:21;;;;;;;3.05;1.90;;;;;;;;;;5022580;28;20068;-76
2022/07/22 12:10:47;;;;;;;3.83;2.22;;;;;;;;;;5024215;28;20071;-77
2022/07/22 12:13:14;;;;;;;4.65;2.20;;;;;;;;;;5025374;28;20041;-77
2022/07/22 12:15:40;;;;;;;3.53;2.00;;;;;;;;;;5024531;28;20034;-76
2022/07/22 12:18:22;;;;;;;3.30;2.22;;;;;;;;;;5025091;28;20064;-79
2022/07/22 12:20:49;;;;;;;4.63;2.50;;;;;;;;;;5021898;28;20478;-76
2022/07/22 12:23:15;;;;;;;3.28;2.28;;;;;;;;;;5025144;28;20025;-77
2022/07/22 12:25:57;;;;;;;3.70;2.30;;;;;;;;;;5023550;28;20056;-75
2022/07/22 12:28:24;;;;;;;3.60;1.95;;;;;;;;;;5025615;28;20483;-74
2022/07/22 12:30:51;;;;;;;3.20;2.30;;;;;;;;;;5023141;28;20053;-75
2022/07/22 12:33:19;;;;;;;4.93;2.20;;;;;;;;;;5024817;28;20540;-74
2022/07/22 12:35:46;;;;;;;4.82;2.20;;;;;;;;;;5024590;28;20488;-77
2022/07/22 12:38:13;;;;;;;3.08;2.25;;;;;;;;;;5022115;28;20025;-77
2022/07/22 12:40:39;;;;;;;2.42;2.03;;;;;;;;;;5024686;28;20384;-75
2022/07/22 12:43:09;;;;;;;4.32;2.28;;;;;;;;;;5024226;28;20650;-73
2022/07/22 12:45:37;;;;;;;2.50;2.00;;;;;;;;;;5021735;28;20151;-74
2022/07/22 12:48:06;;;;;;;4.00;2.33;;;;;;;;;;5023796;28;20025;-76
2022/07/22 12:50:32;;;;;;;6.68;2.47;;;;;;;;;;5023584;28;20029;-75
2022/07/22 12:53:04;;;;;;;5.55;2.20;;;;;;;;;;5024225;28;20406;-74
2022/07/22 12:55:30;;;;;;;3.95;2.20;;;;;;;;;;5024096;28;21241;-74
2022/07/22 12:57:56;;;;;;;2.50;1.88;;;;;;;;;;5023920;28;20021;-74
2022/07/22 13:00:24;;;;;;;4.40;2.00;;;;;;;;;;5024270;28;20457;-75
2022/07/22 13:02:51;;;;;;;3.05;2.10;;;;;;;;;;5024210;28;20104;-75
2022/07/22 13:05:17;;;;;;;2.75;1.90;;;;;;;;;;5022879;28;20041;-75
2022/07/22 13:07:44;;;;;;;3.60;2.42;;;;;;;;;;5021271;28;20035;-76
2022/07/22 13:10:11;;;;;;;3.10;2.20;;;;;;;;;;5024712;28;20033;-75
2022/07/22 13:12:37;;;;;;;2.80;2.00;;;;;;;;;;5022450;28;20052;-76
2022/07/22 13:15:03;;;;;;;4.40;2.00;;;;;;;;;;5025487;28;20034;-75
2022/07/22 13:17:30;;;;;;;3.80;2.10;;;;;;;;;;5026852;28;20026;-76
2022/07/22 13:19:56;;;;;;;3.55;2.10;;;;;;;;;;5024237;28;20091;-78
2022/07/22 13:22:22;;;;;;;2.85;1.98;;;;;;;;;;5024221;28;20022;-77
2022/07/22 13:24:49;;;;;;;3.50;2.55;;;;;;;;;;5021537;28;20036;-81
2022/07/22 13:27:15;;;;;;;3.60;2.10;;;;;;;;;;5025584;28;20234;-77
2022/07/22 13:29:41;;;;;;;3.38;2.13;;;;;;;;;;5020445;28;20026;-77
2022/07/22 13:32:07;;;;;;;4.60;2.30;;;;;;;;;;5036254;28;20091;-78
2022/07/22 13:34:33;;;;;;;3.40;2.10;;;;;;;;;;5020025;28;20033;-77
2022/07/22 13:37:00;;;;;;;3.35;2.15;;;;;;;;;;5020237;28;20026;-78
2022/07/22 13:39:26;;;;;;;2.83;2.25;;;;;;;;;;5022810;28;20357;-77
2022/07/22 13:41:52;;;;;;;2.95;2.03;;;;;;;;;;5021255;28;20083;-78
2022/07/22 13:44:19;;;;;;;3.38;2.08;;;;;;;;;;5023351;28;20029;-77
2022/07/22 13:46:45;;;;;;;2.88;1.98;;;;;;;;;;5025353;28;20441;-77
2022/07/22 13:49:11;;;;;;;3.22;2.20;;;;;;;;;;5022620;28;20493;-76
2022/07/22 13:51:38;;;;;;;3.90;2.10;;;;;;;;;;5022474;28;20079;-75
2022/07/22 13:54:07;;;;;;;3.20;2.00;;;;;;;;;;5022456;28;20087;-77
2022/07/22 13:56:34;;;;;;;3.10;2.03;;;;;;;;;;5024306;28;20025;-77
2022/07/22 13:59:00;;;;;;;2.78;2.00;;;;;;;;;;5019657;28;20036;-77
2022/07/22 14:01:27;;;;;;;3.20;2.00;;;;;;;;;;5020184;28;20596;-77
2022/07/22 14:03:53;;;;;;;3.97;2.30;;;;;;;;;;5021979;28;20031;-76
2022/07/22 14:06:19;;;;;;;5.72;2.30;;;;;;;;;;5021651;28;20507;-76
2022/07/22 14:08:45;;;;;;;3.28;2.03;;;;;;;;;;5021101;28;20026;-77
2022/07/22 14:11:11;;;;;;;3.08;2.22;;;;;;;;;;5021004;28;20032;-76
2022/07/22 14:13:37;;;;;;;2.20;2.00;;;;;;;;;;5022067;28;20431;-76
2022/07/22 14:18:48;;;;;;;3.10;2.10;;;;;;;;;;5021138;28;20061;-77
2022/07/22 14:21:14;;;;;;;3.53;2.20;;;;;;;;;;5022315;28;20029;-78
2022/07/22 14:23:40;;;;;;;4.70;2.38;;;;;;;;;;5024111;28;20029;-78
2022/07/22 14:26:06;;;;;;;4.65;2.40;;;;;;;;;;5018758;28;20021;-77
2022/07/22 14:28:32;;;;;;;3.40;2.17;;;;;;;;;;5019616;28;20041;-77
2022/07/22 14:30:59;;;;;;;3.72;2.03;;;;;;;;;;5021762;28;20579;-77
2022/07/22 14:33:25;;;;;;;4.40;2.00;;;;;;;;;;5019598;28;20025;-76
2022/07/22 14:35:51;;;;;;;4.82;2.30;;;;;;;;;;5024165;28;20483;-78
2022/07/22 14:38:18;;;;;;;3.92;2.30;;;;;;;;;;5022700;28;20040;-76
2022/07/22 14:40:45;;;;;;;2.85;1.73;;;;;;;;;;5024038;28;20022;-79
2022/07/22 14:43:11;;;;;;;2.25;1.90;;;;;;;;;;5020725;28;20067;-77
2022/07/22 14:45:37;;;;;;;3.40;1.85;;;;;;;;;;5020883;28;20056;-78